Relevés horaires Bierset (Belgique)


Relevés horaires à Bierset - Samedi 17 Juin 2023
Heure UTC1 Température [°C] Vent [km/h] Hum. [%] Pres.4 [hPa] Visi. [Km] Nébu. [octa] Préc.5 [mm] Cond.
2m. Res. Ros. Dir.2 Vit. Moy. Raf.3
23:00 21.7 21.7 7.5 ESE 5.6 5.6 7.4 40 1013.9(0.1/3h) 30 7/8 -- --
22:00 22.4 22.4 8.4 SE 5.6 5.6 7.4 41 1014(-0.1/3h) 30 7/8 -- --
21:00 23.4 23.4 8.1 ESE 3.7 5.6 18.5 38 1013.9(0.0/3h) 30 6/8 -- --
20:00 24.0 24.0 7.9 E 5.6 5.6 14.8 36 1013.8(-0.1/3h) 30 6/8 -- --
19:00 23.7 23.7 8.7 NE 3.7 3.7 7.4 38 1013.9(-0.3/3h) 30 7/8 -- --
18:00 25.0 25.0 9.1 N 3.7 7.4 11.1 36 1013.8(-0.6/3h) 30 7/8 0/12h
--
17:00 25.5 25.5 8.8 NNO 3.7 5.6 7.4 35 1013.8(-0.9/3h) 30 7/8 -- --
16:00 26.2 26.2 8.7 NNO 1.9 5.6 9.3 33 1014(-0.6/3h) 30 7/8 -- --
15:00 26.1 26.1 9.3 NNO 3.7 7.4 11.1 35 1014.4(-0.7/3h) 30 6/8 -- --
14:00 26.1 26.1 8.9 N 3.7 7.4 11.1 34 1014.7(-0.9/3h) 30 6/8 -- --
13:00 26.3 26.3 8.6 O 3.7 7.4 11.1 33 1014.7(-1.0/3h) 30 5/8 -- --
12:00 26.2 26.2 7.7 NNO 3.7 7.4 20.4 31 1015.1(-0.6/3h) 30 4/8 0/6h
--
11:00 26.3 26.3 8.7 NNO 5.6 7.4 13.0 33 1015.5(-0.3/3h) 30 3/8 -- --
10:00 26.0 26.0 8.7 NNO 1.9 3.7 7.4 33 1015.7(-0.1/3h) 30 3/8 -- --
09:00 23.8 23.8 9.7 NNO 1.9 5.6 20.4 41 1015.9(0.0/3h) 30 3/8 -- --
08:00 22.4 22.4 9.6 SSE 3.7 5.6 11.1 44 1016.1(0.3/3h) 30 3/8 -- --
07:00 19.6 19.6 9.3 SSE 3.7 3.7 20.4 51 1016.3(0.4/3h) 30 1/8 -- --
06:00 17.6 17.6 7.8 NNO 1.9 5.6 14.8 53 1016.3(0.0/3h) 30 1/8 0/12h
--
05:00 14.8 14.8 8.4 SE 3.7 3.7 13.0 65 1016.4(-0.3/3h) 30 1/8 -- --
04:00 14.3 14.3 6.6 E 1.9 1.9 3.7 60 1016.4(-0.8/3h) 30 1/8 -- --
03:00 15.2 15.2 7.7 E 1.9 5.6 14.8 61 1016.5(-0.8/3h) 30 0/8 -- --
02:00 16.7 16.7 7.5 ESE 3.7 3.7 5.6 55 1016.6(-1.1/3h) 30 0/8 -- --
01:00 17.7 17.7 6.7 ESE 3.7 3.7 5.6 48 1016.9(-0.6/3h) 30 0/8 -- --
00:00 18.8 18.8 6.2 E 3.7 7.4 11.1 44 1017.1(0.2/3h) 30 0/8 0/6h
0/24h
--

1 Coordinated Universal Time. Actuellement il est 23:00 locale et 21:00 UTC.

2 Le vent souffle depuis la direction indiquée vers la direction oposée.

3 Les rafales max. sont disponible 40 min après l'heure du relevé.

4 Pour les stations d'altitude (plus de 600m) le géopotentiel du niveau le plus proche de la pression obligatoire est indiqué.

5 Les stations disposant d'un diffuseur peuvent indiquer "trace". Cela signifie que des précipitations ont touchés le sol mais que la quantité est inférieure à 0.1 mm.

Récapitulatif de la journée
Température [°C] Vent [km/h] Ensoleillement4 [h] Precipitations totale5 [mm] Pression [Hpa]
Min1 Max.2 Moy.3 Max. Min Max.
13.1 27.1 5.5 20.4 0 h 0 min 0 1013.8 1017.1

1 Température minimale relevée entre 18:00 UTC la veille et 18:00 UTC le jour donné.

2 Température maximale relevée entre 06:00 UTC le jour donné et 06:00 UTC le lendemain.

3 Vent moyen de la journée basé sur les relevés horaires.

4 Ensoleillement en heures relevé entre 06:00 UTC la veille et 06:00 UTC le jour donné.

5 Précipitations totales tombées entre 06:00 UTC la jour donné et 06:00 UTC le lendemain.

Graphiques horaires